Time;durP1;ratioP1;P1;durP2;ratioP2;P2;SDS_P1;SDS_P2;PMS_P1;PMS_P2;Temp;Humidity;BMP_temperature;BMP_pressure;BME280_temperature;BME280_humidity;BME280_pressure;Samples;Min_cycle;Max_cycle;Signal;HPM_P1;HPM_P2
2023/10/24 00:01:06;;;;;;;15.52;11.00;;;10.10;99.90;;;;;;4935426;28;20043;-68
2023/10/24 00:03:32;;;;;;;19.23;11.45;;;10.00;99.90;;;;;;4938401;28;20082;-68
2023/10/24 00:05:58;;;;;;;20.00;11.38;;;10.00;99.90;;;;;;4954561;28;20047;-68
2023/10/24 00:08:23;;;;;;;17.08;11.57;;;10.00;99.90;;;;;;4948720;28;20127;-69
2023/10/24 00:10:58;;;;;;;19.83;12.13;;;10.00;99.90;;;;;;4953763;28;20054;-67
2023/10/24 00:13:23;;;;;;;19.27;11.82;;;10.20;99.90;;;;;;4952892;28;20035;-68
2023/10/24 00:15:49;;;;;;;18.73;11.73;;;10.00;99.90;;;;;;4952651;28;20537;-69
2023/10/24 00:18:14;;;;;;;19.50;11.65;;;10.00;99.90;;;;;;4952854;28;20070;-69
2023/10/24 00:20:40;;;;;;;17.40;11.45;;;10.00;99.90;;;;;;4934903;28;20062;-68
2023/10/24 00:23:06;;;;;;;19.05;11.77;;;10.10;99.90;;;;;;4948353;28;21058;-68
2023/10/24 00:25:31;;;;;;;20.55;11.55;;;10.00;99.90;;;;;;4951400;28;20042;-67
2023/10/24 00:27:57;;;;;;;23.40;12.70;;;10.00;99.90;;;;;;4962848;28;20100;-68
2023/10/24 00:30:23;;;;;;;20.52;11.95;;;10.10;99.90;;;;;;4969288;28;20399;-69
2023/10/24 00:32:49;;;;;;;18.90;12.32;;;10.10;99.90;;;;;;4948412;28;20143;-68
2023/10/24 00:35:16;;;;;;;18.05;11.10;;;10.10;99.90;;;;;;4963238;28;20066;-68
2023/10/24 00:37:42;;;;;;;19.38;12.23;;;10.10;99.90;;;;;;4965360;28;20058;-68
2023/10/24 00:40:09;;;;;;;19.58;11.63;;;10.10;99.90;;;;;;4966904;28;20039;-70
2023/10/24 00:42:34;;;;;;;17.17;11.20;;;10.10;99.90;;;;;;4965995;28;20130;-68
2023/10/24 00:45:00;;;;;;;19.73;12.38;;;10.20;99.90;;;;;;4947361;28;20550;-73
2023/10/24 00:47:26;;;;;;;16.85;11.70;;;10.30;99.90;;;;;;4964888;28;20047;-68
2023/10/24 00:49:52;;;;;;;19.08;12.30;;;10.10;99.90;;;;;;4962514;28;20051;-68
2023/10/24 00:52:19;;;;;;;19.50;11.77;;;10.20;99.90;;;;;;4964804;28;20069;-69
2023/10/24 00:54:45;;;;;;;21.88;13.52;;;10.10;99.90;;;;;;4960824;28;20471;-70
2023/10/24 00:57:12;;;;;;;20.20;11.98;;;10.10;99.90;;;;;;4928779;28;20203;-69
2023/10/24 00:59:39;;;;;;;18.50;13.07;;;10.10;99.90;;;;;;4962826;28;20113;-69
2023/10/24 01:02:06;;;;;;;21.23;12.48;;;10.20;99.90;;;;;;4957177;28;20117;-69
2023/10/24 01:04:33;;;;;;;23.65;13.32;;;10.10;99.90;;;;;;4962322;28;20042;-69
2023/10/24 01:06:59;;;;;;;18.15;11.93;;;10.30;99.90;;;;;;4941068;28;20055;-69
2023/10/24 01:09:25;;;;;;;20.17;12.82;;;10.20;99.90;;;;;;4957056;28;20039;-69
2023/10/24 01:11:53;;;;;;;20.92;13.23;;;10.10;99.90;;;;;;4959058;28;20069;-69
2023/10/24 01:14:19;;;;;;;21.80;13.55;;;10.40;99.90;;;;;;4939875;28;20487;-69
2023/10/24 01:16:45;;;;;;;20.77;13.15;;;10.10;99.90;;;;;;4955149;28;20047;-70
2023/10/24 01:19:12;;;;;;;21.25;13.35;;;10.10;99.90;;;;;;4939594;28;20054;-69
2023/10/24 01:21:44;;;;;;;23.85;12.98;;;10.10;99.90;;;;;;4940300;28;20074;-70
2023/10/24 01:24:13;;;;;;;18.25;13.00;;;10.00;99.90;;;;;;4956665;28;20055;-69
2023/10/24 01:26:41;;;;;;;19.85;13.27;;;10.00;99.90;;;;;;4957798;28;20027;-69
2023/10/24 01:29:06;;;;;;;21.63;13.65;;;10.10;99.90;;;;;;4956976;28;20509;-70
2023/10/24 01:31:32;;;;;;;21.13;13.48;;;10.10;99.90;;;;;;4939291;29;20043;-69
2023/10/24 01:33:58;;;;;;;20.02;13.52;;;10.10;99.90;;;;;;4959081;28;20058;-68
2023/10/24 01:36:23;;;;;;;26.70;13.63;;;10.10;99.90;;;;;;4954299;28;20059;-70
2023/10/24 01:38:49;;;;;;;26.10;13.88;;;10.50;99.90;;;;;;4955637;28;20055;-69
2023/10/24 01:41:14;;;;;;;25.00;13.93;;;10.10;99.90;;;;;;4952992;28;20053;-67
2023/10/24 01:43:40;;;;;;;20.40;12.90;;;10.10;99.90;;;;;;4936735;29;20051;-69
2023/10/24 01:46:06;;;;;;;21.20;14.63;;;10.00;99.90;;;;;;4941996;28;20046;-69
2023/10/24 01:48:31;;;;;;;21.55;13.38;;;10.20;99.90;;;;;;4957341;28;20889;-71
2023/10/24 01:50:57;;;;;;;21.75;14.07;;;10.10;99.90;;;;;;4936836;28;20048;-70
2023/10/24 01:53:23;;;;;;;20.35;13.45;;;10.10;99.90;;;;;;4959426;28;20034;-70
2023/10/24 01:55:48;;;;;;;22.95;14.45;;;10.10;99.90;;;;;;4957298;28;20042;-71
2023/10/24 01:58:14;;;;;;;21.25;12.98;;;10.10;99.90;;;;;;4954229;28;20051;-70
2023/10/24 02:00:40;;;;;;;19.50;13.95;;;10.10;99.90;;;;;;4940299;28;20410;-71
2023/10/24 02:03:05;;;;;;;18.10;12.63;;;10.00;99.90;;;;;;4956611;28;20039;-71
2023/10/24 02:05:31;;;;;;;19.17;13.27;;;10.10;99.90;;;;;;4955128;28;20050;-68
2023/10/24 02:07:56;;;;;;;18.60;12.82;;;10.10;99.90;;;;;;4956173;28;20217;-71
2023/10/24 02:10:22;;;;;;;17.98;12.45;;;10.00;99.90;;;;;;4957217;28;20039;-71
2023/10/24 02:12:48;;;;;;;21.40;12.60;;;10.10;99.90;;;;;;4957627;28;20391;-69
2023/10/24 02:15:28;;;;;;;18.95;13.00;;;10.10;99.90;;;;;;4884003;29;20057;-69
2023/10/24 02:17:54;;;;;;;19.27;12.38;;;10.10;99.90;;;;;;4897551;29;20055;-72
2023/10/24 02:20:20;;;;;;;16.20;11.55;;;10.10;99.90;;;;;;4896692;29;20099;-71
2023/10/24 02:22:49;;;;;;;18.13;11.77;;;10.40;99.90;;;;;;4898926;29;20062;-70
2023/10/24 02:25:14;;;;;;;19.15;12.35;;;10.10;99.90;;;;;;4896220;29;20051;-69
2023/10/24 02:27:40;;;;;;;19.35;11.48;;;10.10;99.90;;;;;;4898030;29;20127;-69
2023/10/24 02:30:06;;;;;;;18.10;11.25;;;10.10;99.90;;;;;;4897997;29;20087;-70
2023/10/24 02:32:32;;;;;;;15.82;11.20;;;10.20;99.90;;;;;;4883330;29;20108;-71
2023/10/24 02:34:58;;;;;;;18.88;11.85;;;10.10;99.90;;;;;;4903090;29;20471;-69
2023/10/24 02:37:23;;;;;;;15.30;10.48;;;10.10;99.90;;;;;;4899980;29;20048;-70
2023/10/24 02:39:49;;;;;;;15.57;11.48;;;10.40;99.90;;;;;;4900949;29;20080;-69
2023/10/24 02:42:15;;;;;;;14.63;10.75;;;10.30;99.90;;;;;;4886189;29;20103;-70
2023/10/24 02:44:41;;;;;;;14.20;10.05;;;10.20;99.90;;;;;;4900290;29;20085;-69
2023/10/24 02:47:06;;;;;;;14.35;9.75;;;10.30;99.90;;;;;;4886287;29;20060;-69
2023/10/24 02:49:32;;;;;;;13.98;10.38;;;10.20;99.90;;;;;;4900165;29;20495;-69
2023/10/24 02:51:58;;;;;;;14.02;10.05;;;10.20;99.90;;;;;;4912707;28;20069;-70
2023/10/24 02:54:24;;;;;;;13.88;9.65;;;10.20;99.90;;;;;;4943568;28;20146;-70
2023/10/24 02:56:50;;;;;;;13.00;9.68;;;10.20;99.90;;;;;;4926306;29;20102;-69
2023/10/24 02:59:16;;;;;;;14.45;9.93;;;10.20;99.90;;;;;;4961519;28;20448;-69
2023/10/24 03:01:42;;;;;;;13.88;10.40;;;10.30;99.90;;;;;;4937084;29;20058;-70
2023/10/24 03:04:07;;;;;;;13.73;9.85;;;10.20;99.90;;;;;;4955539;28;20047;-69
2023/10/24 03:06:33;;;;;;;16.02;10.43;;;10.30;99.90;;;;;;4962087;28;20130;-71
2023/10/24 03:08:59;;;;;;;13.65;10.13;;;10.30;99.90;;;;;;4937010;29;20723;-71
2023/10/24 03:11:25;;;;;;;13.88;9.93;;;10.30;99.90;;;;;;4941589;28;20841;-71
2023/10/24 03:13:54;;;;;;;15.95;10.50;;;10.30;99.90;;;;;;4961447;28;20130;-73
2023/10/24 03:16:21;;;;;;;15.48;10.15;;;10.40;99.90;;;;;;4953360;28;20086;-69
2023/10/24 03:18:47;;;;;;;13.88;9.90;;;10.30;99.90;;;;;;4962496;28;20406;-69
2023/10/24 03:21:13;;;;;;;13.15;9.18;;;10.30;99.90;;;;;;4953548;28;20062;-69
2023/10/24 03:23:40;;;;;;;13.65;9.88;;;10.40;99.90;;;;;;4955763;28;20047;-70
2023/10/24 03:26:06;;;;;;;16.95;9.57;;;10.40;99.90;;;;;;4951530;28;20122;-68
2023/10/24 03:28:33;;;;;;;14.35;10.25;;;10.40;99.90;;;;;;4957311;28;20043;-70
2023/10/24 03:31:08;;;;;;;14.57;9.65;;;10.50;99.90;;;;;;4955683;28;20351;-71
2023/10/24 03:33:34;;;;;;;12.90;9.68;;;10.50;99.90;;;;;;4961117;28;20149;-69
2023/10/24 03:36:00;;;;;;;15.48;10.20;;;10.60;99.90;;;;;;4939021;28;20058;-69
2023/10/24 03:38:27;;;;;;;15.00;10.15;;;10.50;99.90;;;;;;4956990;28;20481;-69
2023/10/24 03:40:53;;;;;;;16.13;10.05;;;10.50;99.90;;;;;;4958349;28;20057;-71
2023/10/24 03:43:20;;;;;;;14.38;10.35;;;10.50;99.90;;;;;;4951018;28;20054;-69
2023/10/24 03:45:45;;;;;;;13.38;9.93;;;10.50;99.90;;;;;;4955052;28;20126;-68
2023/10/24 03:48:12;;;;;;;17.02;11.25;;;10.70;99.90;;;;;;4939803;28;20129;-67
2023/10/24 03:50:39;;;;;;;16.27;11.35;;;10.50;99.90;;;;;;4954502;28;20047;-68
2023/10/24 03:53:06;;;;;;;16.13;10.77;;;10.60;99.90;;;;;;4940982;28;20135;-68
2023/10/24 03:55:35;;;;;;;16.25;11.68;;;10.50;99.90;;;;;;4956333;28;20089;-67
2023/10/24 03:58:00;;;;;;;16.95;10.55;;;10.50;99.90;;;;;;4954078;28;20047;-69
2023/10/24 04:00:26;;;;;;;18.38;10.77;;;10.50;99.90;;;;;;4941488;28;20030;-70
2023/10/24 04:02:53;;;;;;;15.88;11.45;;;10.50;99.90;;;;;;4952593;28;20422;-71
2023/10/24 04:05:19;;;;;;;15.43;10.95;;;10.60;99.90;;;;;;4945507;28;20045;-68
2023/10/24 04:07:45;;;;;;;14.73;10.43;;;10.60;99.90;;;;;;4961081;28;20510;-70
2023/10/24 04:10:12;;;;;;;14.60;10.85;;;10.60;99.90;;;;;;4960980;28;20044;-70
2023/10/24 04:12:38;;;;;;;15.75;10.82;;;10.60;99.90;;;;;;4953048;28;20467;-69
2023/10/24 04:15:05;;;;;;;18.17;11.95;;;10.70;99.90;;;;;;4957865;28;20063;-69
2023/10/24 04:17:32;;;;;;;21.35;12.27;;;10.70;99.90;;;;;;4959198;28;20058;-68
2023/10/24 04:19:58;;;;;;;15.10;11.25;;;10.70;99.90;;;;;;4960410;28;20053;-69
2023/10/24 04:22:23;;;;;;;16.92;11.60;;;10.70;99.90;;;;;;4959918;28;20050;-69
2023/10/24 04:24:49;;;;;;;15.65;10.90;;;10.80;99.90;;;;;;4959498;28;20043;-69
2023/10/24 04:27:16;;;;;;;15.73;10.95;;;10.70;99.90;;;;;;4960475;28;20721;-68
2023/10/24 04:29:42;;;;;;;16.70;11.52;;;10.70;99.90;;;;;;4960515;28;20070;-68
2023/10/24 04:32:07;;;;;;;18.48;11.43;;;10.80;99.90;;;;;;4958425;28;20070;-69
2023/10/24 04:34:33;;;;;;;21.15;11.45;;;10.80;99.90;;;;;;4961563;28;20043;-68
2023/10/24 04:37:00;;;;;;;16.67;11.88;;;10.80;99.90;;;;;;4962984;28;20050;-68
2023/10/24 04:39:27;;;;;;;16.27;11.52;;;10.80;99.90;;;;;;4954321;28;20047;-68
2023/10/24 04:41:53;;;;;;;18.80;12.90;;;10.80;99.90;;;;;;4949001;28;20482;-69
2023/10/24 04:44:19;;;;;;;17.15;12.55;;;10.90;99.90;;;;;;4937753;29;20526;-69
2023/10/24 04:46:45;;;;;;;18.65;12.20;;;10.90;99.90;;;;;;4961638;28;20055;-69
2023/10/24 04:49:11;;;;;;;16.00;12.23;;;11.00;99.90;;;;;;4945195;28;20453;-68
2023/10/24 04:51:37;;;;;;;17.27;12.57;;;11.10;99.90;;;;;;4959527;28;20138;-69
2023/10/24 04:54:02;;;;;;;17.02;12.07;;;10.90;99.90;;;;;;4959079;28;20130;-70
2023/10/24 04:56:28;;;;;;;14.88;11.52;;;11.00;99.90;;;;;;4941169;28;20053;-69
2023/10/24 04:58:55;;;;;;;17.35;12.38;;;11.00;99.90;;;;;;4956683;28;20059;-70
2023/10/24 05:01:21;;;;;;;14.95;11.85;;;11.00;99.90;;;;;;4951747;28;20057;-68
2023/10/24 05:03:46;;;;;;;15.93;12.13;;;11.10;99.90;;;;;;4955333;28;20053;-70
2023/10/24 05:06:12;;;;;;;20.23;13.65;;;11.20;99.90;;;;;;4940743;28;20070;-69
2023/10/24 05:08:38;;;;;;;16.10;12.57;;;11.20;99.90;;;;;;4954321;28;20516;-69
2023/10/24 05:11:04;;;;;;;19.67;13.65;;;11.10;99.90;;;;;;4937412;28;20048;-70
2023/10/24 05:13:30;;;;;;;24.17;13.82;;;11.00;99.90;;;;;;4958837;28;20173;-69
2023/10/24 05:15:55;;;;;;;18.35;13.90;;;11.20;99.90;;;;;;4938588;29;20424;-68
2023/10/24 05:18:21;;;;;;;20.00;14.45;;;11.10;99.90;;;;;;4958060;28;20047;-69
2023/10/24 05:20:47;;;;;;;20.33;14.40;;;11.10;99.90;;;;;;4955676;28;20040;-70
2023/10/24 05:23:12;;;;;;;21.73;15.07;;;11.10;99.90;;;;;;4951333;28;20047;-69
2023/10/24 05:25:38;;;;;;;22.02;15.32;;;11.20;99.90;;;;;;4935648;29;20055;-68
2023/10/24 05:28:04;;;;;;;19.33;14.48;;;11.10;99.90;;;;;;4937504;29;20053;-69
2023/10/24 05:30:29;;;;;;;25.48;15.52;;;11.10;99.90;;;;;;4956243;28;20047;-70
2023/10/24 05:32:58;;;;;;;19.48;14.23;;;11.30;99.90;;;;;;4954483;28;20059;-70
2023/10/24 05:35:23;;;;;;;18.98;14.23;;;11.20;99.90;;;;;;4936920;28;20479;-69
2023/10/24 05:37:49;;;;;;;22.02;14.98;;;11.20;99.90;;;;;;4942428;28;20074;-68
2023/10/24 05:40:15;;;;;;;21.88;15.63;;;11.20;99.90;;;;;;4947818;28;20043;-70
2023/10/24 05:42:41;;;;;;;20.92;14.27;;;11.20;99.90;;;;;;4954140;28;20057;-69
2023/10/24 05:45:07;;;;;;;21.58;14.23;;;11.10;99.90;;;;;;4954153;28;20043;-69
2023/10/24 05:47:33;;;;;;;19.58;14.52;;;11.20;99.90;;;;;;4934967;29;20135;-71
2023/10/24 05:49:59;;;;;;;20.20;13.43;;;11.20;99.90;;;;;;4936702;28;20117;-69
2023/10/24 05:52:24;;;;;;;17.40;13.45;;;11.20;99.90;;;;;;4952556;28;20047;-70
2023/10/24 05:54:52;;;;;;;23.60;14.13;;;11.20;99.90;;;;;;4952874;28;20058;-69
2023/10/24 05:57:17;;;;;;;21.08;14.98;;;11.20;99.90;;;;;;4949378;28;20062;-69
2023/10/24 05:59:43;;;;;;;19.45;12.98;;;11.20;99.90;;;;;;4934520;29;20043;-68
2023/10/24 06:02:08;;;;;;;19.83;13.48;;;11.10;99.90;;;;;;4932636;28;20054;-68
2023/10/24 06:04:34;;;;;;;19.75;14.10;;;11.20;99.90;;;;;;4946885;28;20035;-70
2023/10/24 06:07:00;;;;;;;19.23;13.52;;;11.20;99.90;;;;;;4933286;28;20372;-69
2023/10/24 06:09:26;;;;;;;16.92;13.18;;;11.40;99.90;;;;;;4950594;28;20059;-69
2023/10/24 06:11:52;;;;;;;14.60;12.35;;;11.20;99.90;;;;;;4940938;29;20047;-73
2023/10/24 06:14:18;;;;;;;17.23;12.52;;;11.20;99.90;;;;;;4959610;28;20050;-70
2023/10/24 06:16:43;;;;;;;16.20;12.65;;;11.20;99.90;;;;;;4968247;28;20047;-68
2023/10/24 06:19:09;;;;;;;17.13;12.00;;;11.20;99.90;;;;;;4959807;28;20760;-69
2023/10/24 06:21:34;;;;;;;16.27;10.57;;;11.40;99.90;;;;;;4960837;28;20509;-75
2023/10/24 06:24:00;;;;;;;13.48;10.52;;;11.20;99.90;;;;;;4966913;28;20070;-68
2023/10/24 06:26:26;;;;;;;11.77;9.90;;;11.30;99.90;;;;;;4941452;28;20062;-69
2023/10/24 06:28:52;;;;;;;17.92;10.18;;;11.20;99.90;;;;;;4965933;28;20091;-69
2023/10/24 06:31:18;;;;;;;14.00;9.45;;;11.20;99.90;;;;;;4930221;28;20098;-68
2023/10/24 06:33:43;;;;;;;19.45;10.25;;;11.20;99.90;;;;;;4952986;28;20066;-70
2023/10/24 06:36:09;;;;;;;13.07;9.18;;;11.30;99.90;;;;;;4964159;28;20059;-74
2023/10/24 06:38:35;;;;;;;11.02;8.88;;;11.40;99.90;;;;;;4944736;28;20199;-72
2023/10/24 06:41:01;;;;;;;14.85;10.10;;;11.30;99.90;;;;;;4962741;28;20073;-67
2023/10/24 06:43:27;;;;;;;12.43;9.30;;;11.30;99.90;;;;;;4949368;28;20348;-69
2023/10/24 06:45:53;;;;;;;12.05;8.43;;;11.20;99.90;;;;;;4962779;28;20039;-74
2023/10/24 06:48:19;;;;;;;13.05;8.95;;;11.30;99.90;;;;;;4959586;28;20194;-73
2023/10/24 06:50:45;;;;;;;12.63;9.98;;;11.20;99.90;;;;;;4960040;28;20534;-74
2023/10/24 06:53:11;;;;;;;13.88;9.77;;;11.30;99.90;;;;;;4961473;28;20090;-69
2023/10/24 06:55:38;;;;;;;12.45;9.25;;;11.20;99.90;;;;;;4955635;28;20178;-68
2023/10/24 06:58:04;;;;;;;13.40;9.25;;;11.20;99.90;;;;;;4953839;28;20062;-69
2023/10/24 07:00:31;;;;;;;12.57;9.02;;;11.20;99.90;;;;;;4939547;28;20498;-69
2023/10/24 07:02:57;;;;;;;14.70;8.85;;;11.20;99.90;;;;;;4925378;28;20277;-69
2023/10/24 07:05:22;;;;;;;14.77;9.65;;;11.30;99.90;;;;;;4956984;28;20129;-71
2023/10/24 07:07:48;;;;;;;12.30;8.63;;;11.20;99.90;;;;;;4956831;28;20526;-68
2023/10/24 07:10:14;;;;;;;14.55;9.18;;;11.30;99.90;;;;;;4955332;28;20062;-71
2023/10/24 07:12:39;;;;;;;12.45;9.45;;;11.20;99.90;;;;;;4947146;28;20050;-74
2023/10/24 07:15:07;;;;;;;12.35;8.85;;;11.20;99.90;;;;;;4956252;28;20055;-78
2023/10/24 07:17:33;;;;;;;11.55;8.52;;;11.30;99.90;;;;;;4956705;28;20115;-76
2023/10/24 07:19:59;;;;;;;11.48;8.18;;;11.20;99.90;;;;;;4954147;28;20126;-71
2023/10/24 07:22:26;;;;;;;10.23;8.23;;;11.10;99.90;;;;;;4942489;28;20051;-68
2023/10/24 07:24:52;;;;;;;13.40;8.68;;;11.20;99.90;;;;;;4938074;29;20051;-75
2023/10/24 07:27:18;;;;;;;13.48;8.60;;;11.20;99.90;;;;;;4940390;28;20066;-73
2023/10/24 07:29:43;;;;;;;15.10;8.55;;;11.20;99.90;;;;;;4940237;28;20382;-72
2023/10/24 07:32:09;;;;;;;12.38;8.82;;;11.10;99.90;;;;;;4960259;28;20453;-74
2023/10/24 07:34:35;;;;;;;14.45;9.48;;;11.20;99.90;;;;;;4962257;28;20043;-76
2023/10/24 07:37:01;;;;;;;14.77;9.30;;;11.10;99.90;;;;;;4964726;28;20042;-74
2023/10/24 07:39:27;;;;;;;14.30;9.13;;;11.10;99.90;;;;;;4947169;28;20522;-74
2023/10/24 07:41:53;;;;;;;14.75;9.18;;;11.20;99.90;;;;;;4961662;28;20043;-67
2023/10/24 07:44:19;;;;;;;12.00;8.88;;;11.20;99.90;;;;;;4961748;28;20059;-69
2023/10/24 07:46:45;;;;;;;11.55;8.48;;;11.10;99.90;;;;;;4945454;28;20490;-69
2023/10/24 07:49:10;;;;;;;13.55;8.90;;;11.10;99.90;;;;;;4958568;28;20051;-71
2023/10/24 07:51:36;;;;;;;10.55;8.30;;;11.10;99.90;;;;;;4956024;28;20074;-73
2023/10/24 07:54:02;;;;;;;12.57;8.98;;;11.50;99.90;;;;;;4964885;28;20043;-69
2023/10/24 07:56:28;;;;;;;12.90;8.90;;;11.10;99.90;;;;;;4945085;28;20558;-70
2023/10/24 07:58:53;;;;;;;13.48;8.98;;;11.10;99.90;;;;;;4945652;28;20491;-71
2023/10/24 08:01:19;;;;;;;14.65;9.13;;;11.10;99.90;;;;;;4961218;28;20115;-72
2023/10/24 08:03:45;;;;;;;14.13;9.50;;;11.20;99.90;;;;;;4961132;28;20083;-71
2023/10/24 08:06:11;;;;;;;13.15;9.00;;;11.20;99.90;;;;;;4963012;28;20048;-71
2023/10/24 08:08:39;;;;;;;12.32;9.32;;;11.20;99.90;;;;;;4959629;28;20039;-74
2023/10/24 08:11:05;;;;;;;12.48;8.85;;;11.10;99.90;;;;;;4961847;28;20150;-70
2023/10/24 08:13:31;;;;;;;10.93;8.45;;;11.20;99.90;;;;;;4957845;28;20117;-72
2023/10/24 08:15:58;;;;;;;14.10;8.85;;;11.20;99.90;;;;;;4945704;29;20050;-76
2023/10/24 08:18:25;;;;;;;13.88;9.65;;;11.30;99.90;;;;;;4964021;28;20486;-71
2023/10/24 08:20:50;;;;;;;14.27;9.38;;;11.20;99.90;;;;;;4964296;28;20051;-75
2023/10/24 08:23:16;;;;;;;16.17;9.95;;;11.20;99.90;;;;;;4945908;28;20105;-70
2023/10/24 08:25:42;;;;;;;13.90;9.35;;;11.20;99.90;;;;;;4960915;28;20129;-71
2023/10/24 08:28:07;;;;;;;15.32;10.18;;;11.20;99.90;;;;;;4960754;28;20383;-73
2023/10/24 08:30:34;;;;;;;14.95;10.65;;;11.20;99.90;;;;;;4954835;28;20043;-68
2023/10/24 08:33:00;;;;;;;16.02;10.18;;;11.30;99.90;;;;;;4937810;29;20535;-68
2023/10/24 08:35:25;;;;;;;16.77;10.55;;;11.20;99.90;;;;;;4954037;28;20118;-70
2023/10/24 08:37:51;;;;;;;16.25;10.70;;;11.30;99.90;;;;;;4957088;28;20066;-69
2023/10/24 08:40:17;;;;;;;16.60;11.30;;;11.20;99.90;;;;;;4943993;29;20055;-75
2023/10/24 08:42:43;;;;;;;15.48;10.63;;;11.20;99.90;;;;;;4967418;28;20051;-74
2023/10/24 08:45:10;;;;;;;19.52;10.93;;;11.50;99.90;;;;;;4968178;28;20440;-73
2023/10/24 08:47:36;;;;;;;18.45;11.43;;;11.20;99.90;;;;;;4943787;28;20046;-70
2023/10/24 08:50:02;;;;;;;19.13;11.82;;;11.20;99.90;;;;;;4959670;28;20043;-68
2023/10/24 08:52:31;;;;;;;18.23;12.00;;;11.20;99.90;;;;;;4965448;28;20058;-70
2023/10/24 08:55:00;;;;;;;16.75;11.13;;;11.20;99.90;;;;;;4965208;28;20050;-71
2023/10/24 08:57:31;;;;;;;17.58;11.65;;;11.20;99.90;;;;;;4962054;28;20050;-70
2023/10/24 08:59:58;;;;;;;17.23;11.52;;;11.50;99.90;;;;;;4944799;28;20051;-69
2023/10/24 09:02:24;;;;;;;15.95;10.93;;;11.20;99.90;;;;;;4959324;28;20043;-70
2023/10/24 09:04:51;;;;;;;18.38;11.05;;;11.30;99.90;;;;;;4954529;28;20062;-69
2023/10/24 09:07:17;;;;;;;14.90;10.50;;;11.30;99.90;;;;;;4954390;28;20113;-70
2023/10/24 09:09:43;;;;;;;18.10;10.38;;;11.20;99.90;;;;;;4953732;28;20078;-73
2023/10/24 09:12:14;;;;;;;19.40;11.70;;;11.30;99.90;;;;;;4954637;28;20403;-73
2023/10/24 09:14:40;;;;;;;17.60;11.23;;;11.30;99.90;;;;;;4953585;28;20063;-72
2023/10/24 09:17:06;;;;;;;17.45;11.80;;;11.30;99.90;;;;;;4952746;28;20052;-75
2023/10/24 09:19:32;;;;;;;19.38;11.10;;;11.50;99.90;;;;;;4952414;28;20399;-70
2023/10/24 09:21:58;;;;;;;17.48;11.02;;;11.20;99.90;;;;;;4934524;29;20112;-72
2023/10/24 09:24:23;;;;;;;15.48;10.77;;;11.40;99.90;;;;;;4952045;28;20079;-73
2023/10/24 09:26:54;;;;;;;18.45;11.30;;;11.40;99.90;;;;;;4957343;28;20039;-72
2023/10/24 09:29:20;;;;;;;15.18;10.80;;;11.30;99.90;;;;;;4952252;28;20487;-73
2023/10/24 09:31:48;;;;;;;15.52;11.07;;;11.30;99.90;;;;;;4966295;28;20051;-71
2023/10/24 09:34:15;;;;;;;15.68;11.45;;;11.40;99.90;;;;;;4965075;28;20109;-69
2023/10/24 09:36:41;;;;;;;15.35;10.82;;;11.60;99.90;;;;;;4967810;28;20051;-72
2023/10/24 09:39:10;;;;;;;16.40;10.63;;;11.40;99.90;;;;;;4961695;28;20047;-72
2023/10/24 09:41:37;;;;;;;16.38;10.57;;;11.40;99.90;;;;;;4946848;28;20496;-69
2023/10/24 09:44:03;;;;;;;16.60;10.63;;;11.30;99.90;;;;;;4964350;28;20094;-71
2023/10/24 09:46:29;;;;;;;16.00;10.77;;;11.40;99.90;;;;;;4959750;28;20407;-70
2023/10/24 09:48:59;;;;;;;16.23;11.02;;;11.30;99.90;;;;;;4962186;28;20043;-71
2023/10/24 09:51:25;;;;;;;16.05;10.30;;;11.30;99.90;;;;;;4962922;28;20081;-70
2023/10/24 09:53:51;;;;;;;14.68;10.80;;;11.50;99.90;;;;;;4961103;28;20074;-68
2023/10/24 09:56:19;;;;;;;16.85;11.50;;;11.30;99.90;;;;;;4959691;28;20043;-70
2023/10/24 09:58:45;;;;;;;14.45;11.18;;;11.20;99.90;;;;;;4959892;28;20079;-68
2023/10/24 10:01:12;;;;;;;17.52;11.27;;;11.40;99.90;;;;;;4962578;28;20039;-71
2023/10/24 10:03:38;;;;;;;17.70;11.95;;;11.50;99.90;;;;;;4962429;28;20053;-69
2023/10/24 10:06:06;;;;;;;15.20;11.25;;;11.30;99.90;;;;;;4960810;28;20449;-69
2023/10/24 10:08:41;;;;;;;21.02;11.38;;;11.30;99.90;;;;;;4942170;29;20047;-69
2023/10/24 10:11:07;;;;;;;16.35;11.40;;;11.30;99.90;;;;;;4961000;28;20857;-70
2023/10/24 10:13:42;;;;;;;16.38;12.60;;;11.40;99.90;;;;;;4962704;28;20130;-68
2023/10/24 10:16:30;;;;;;;16.42;11.65;;;11.50;99.90;;;;;;4944222;28;20086;-69
2023/10/24 10:19:15;;;;;;;15.85;11.57;;;11.30;99.90;;;;;;4959326;28;20110;-70
2023/10/24 10:22:11;;;;;;;14.95;11.40;;;11.30;99.90;;;;;;4935470;28;20055;-70
2023/10/24 10:25:14;;;;;;;13.93;10.23;;;11.20;99.90;;;;;;4952705;28;20055;-74
2023/10/24 10:27:52;;;;;;;14.43;10.20;;;11.20;99.90;;;;;;4935181;29;20458;-73
2023/10/24 10:30:28;;;;;;;14.63;10.65;;;11.20;99.90;;;;;;4959627;28;20043;-74
2023/10/24 10:33:15;;;;;;;15.05;10.43;;;11.30;99.90;;;;;;4946349;28;20049;-69
2023/10/24 10:36:11;;;;;;;14.70;9.88;;;11.30;99.90;;;;;;4961705;28;20050;-77
2023/10/24 10:38:43;;;;;;;15.00;10.80;;;11.30;99.90;;;;;;4923777;29;20102;-75
2023/10/24 10:41:23;;;;;;;14.43;10.55;;;11.20;99.90;;;;;;4918258;29;20456;-73
2023/10/24 10:43:57;;;;;;;15.50;10.43;;;11.20;99.90;;;;;;4921094;29;20135;-71
2023/10/24 10:46:27;;;;;;;15.43;10.48;;;11.20;99.90;;;;;;4921177;29;20098;-75
2023/10/24 10:48:56;;;;;;;18.15;11.88;;;11.30;99.90;;;;;;4902548;29;20068;-73
2023/10/24 10:51:27;;;;;;;15.05;10.73;;;11.40;99.90;;;;;;4917787;29;20074;-74
2023/10/24 10:53:59;;;;;;;15.90;11.80;;;11.40;99.90;;;;;;4913172;29;20106;-74
2023/10/24 10:56:35;;;;;;;15.80;11.77;;;11.50;99.90;;;;;;4913360;29;20063;-74
2023/10/24 10:59:06;;;;;;;16.38;11.48;;;11.50;99.90;;;;;;4929812;29;20275;-72
2023/10/24 11:01:41;;;;;;;16.77;10.98;;;11.60;99.90;;;;;;4926490;29;20103;-74
2023/10/24 11:04:14;;;;;;;15.15;11.40;;;11.60;99.90;;;;;;4924727;29;20052;-76
2023/10/24 11:06:57;;;;;;;13.75;10.65;;;11.60;99.90;;;;;;4925093;29;20047;-72
2023/10/24 11:09:28;;;;;;;15.18;11.27;;;11.60;99.90;;;;;;4928395;29;20595;-73
2023/10/24 11:12:18;;;;;;;17.08;12.30;;;11.70;99.90;;;;;;4922344;29;20427;-70
2023/10/24 11:15:03;;;;;;;18.98;12.43;;;11.70;99.90;;;;;;4918575;28;20065;-76
2023/10/24 11:17:29;;;;;;;19.98;12.15;;;11.70;99.90;;;;;;4961831;28;20055;-74
2023/10/24 11:19:57;;;;;;;14.98;11.70;;;11.80;99.90;;;;;;4961828;28;20039;-72
2023/10/24 11:22:23;;;;;;;14.60;11.55;;;11.70;99.90;;;;;;4964923;28;20055;-75
2023/10/24 11:24:49;;;;;;;15.63;11.25;;;11.70;99.90;;;;;;4946836;28;20058;-67
2023/10/24 11:27:15;;;;;;;16.73;11.73;;;11.80;99.90;;;;;;4945016;28;20399;-72
2023/10/24 11:29:42;;;;;;;17.80;12.02;;;11.70;99.90;;;;;;4961814;28;21027;-70
2023/10/24 11:32:08;;;;;;;16.52;11.77;;;12.00;99.90;;;;;;4960563;28;20051;-69
2023/10/24 11:34:33;;;;;;;17.60;12.35;;;11.80;99.90;;;;;;4962399;28;20049;-68
2023/10/24 11:36:59;;;;;;;19.15;12.13;;;11.90;99.90;;;;;;4942135;28;20058;-69
2023/10/24 11:39:25;;;;;;;18.48;12.50;;;11.90;99.90;;;;;;4959049;28;20138;-70
2023/10/24 11:41:50;;;;;;;16.27;10.98;;;11.90;99.90;;;;;;4943453;28;20043;-69
2023/10/24 11:44:17;;;;;;;18.75;11.90;;;12.00;99.90;;;;;;4956004;28;20062;-69
2023/10/24 11:46:44;;;;;;;15.73;12.07;;;12.10;99.90;;;;;;4957596;28;20051;-72
2023/10/24 11:49:10;;;;;;;15.88;11.23;;;12.10;99.90;;;;;;4959112;28;20055;-70
2023/10/24 11:51:36;;;;;;;18.30;11.90;;;12.10;99.90;;;;;;4955105;28;20938;-68
2023/10/24 11:54:03;;;;;;;17.75;12.70;;;12.20;99.90;;;;;;4940204;28;20517;-74
2023/10/24 11:56:30;;;;;;;14.50;11.32;;;12.10;99.90;;;;;;4958993;28;20406;-70
2023/10/24 11:59:03;;;;;;;14.27;10.88;;;12.10;99.90;;;;;;4963392;28;20047;-69
2023/10/24 12:01:30;;;;;;;14.02;11.05;;;12.10;99.90;;;;;;4964433;28;20046;-72
2023/10/24 12:03:57;;;;;;;19.45;11.52;;;12.10;99.90;;;;;;4940827;28;20051;-69
2023/10/24 12:06:24;;;;;;;15.57;11.60;;;12.40;99.90;;;;;;4958703;28;20049;-70
2023/10/24 12:08:50;;;;;;;15.38;11.10;;;12.20;99.90;;;;;;4940201;29;20118;-72
2023/10/24 12:11:17;;;;;;;17.08;12.00;;;12.10;99.90;;;;;;4958719;28;20078;-70
2023/10/24 12:13:42;;;;;;;13.63;10.88;;;12.20;99.90;;;;;;4955523;28;20055;-69
2023/10/24 12:16:08;;;;;;;18.60;11.80;;;12.20;99.90;;;;;;4956847;28;20738;-69
2023/10/24 12:18:37;;;;;;;15.95;11.10;;;12.30;99.90;;;;;;4954016;28;20082;-67
2023/10/24 12:21:02;;;;;;;14.85;10.50;;;12.20;99.90;;;;;;4951758;28;20035;-70
2023/10/24 12:23:28;;;;;;;13.88;10.45;;;12.20;99.90;;;;;;4955087;28;20414;-72
2023/10/24 12:25:53;;;;;;;17.27;10.68;;;12.20;99.90;;;;;;4956308;28;20074;-73
2023/10/24 12:28:19;;;;;;;13.45;10.93;;;12.20;99.90;;;;;;4947302;28;20058;-70